Time;durP1;ratioP1;P1;durP2;ratioP2;P2;SDS_P1;SDS_P2;PMS_P1;PMS_P2;Temp;Humidity;BMP_temperature;BMP_pressure;BME280_temperature;BME280_humidity;BME280_pressure;Samples;Min_cycle;Max_cycle;Signal;HPM_P1;HPM_P2
2024/03/25 00:01:55;;;;;;;1.20;0.90;;;23.20;55.30;;;;;;4993199;28;20180;-68
2024/03/25 00:04:22;;;;;;;2.03;1.00;;;23.10;55.20;;;;;;4992784;28;20256;-69
2024/03/25 00:06:49;;;;;;;1.43;1.10;;;23.10;55.20;;;;;;4992812;28;20256;-69
2024/03/25 00:09:14;;;;;;;1.50;1.00;;;23.10;55.20;;;;;;4992699;28;20789;-67
2024/03/25 00:11:41;;;;;;;1.63;0.90;;;23.10;55.20;;;;;;4992889;28;20419;-69
2024/03/25 00:14:07;;;;;;;1.20;1.00;;;23.10;55.20;;;;;;4992635;28;20852;-69
2024/03/25 00:16:33;;;;;;;1.83;1.00;;;23.10;55.20;;;;;;4992112;28;20493;-68
2024/03/25 00:18:58;;;;;;;1.13;0.80;;;23.10;55.20;;;;;;4992377;28;20204;-68
2024/03/25 00:21:24;;;;;;;1.97;0.93;;;23.10;55.80;;;;;;4992617;28;20672;-70
2024/03/25 00:23:49;;;;;;;3.00;0.80;;;23.10;55.20;;;;;;4993108;28;20188;-68
2024/03/25 00:26:15;;;;;;;2.50;1.97;;;23.10;55.20;;;;;;4974932;28;20180;-69
2024/03/25 00:28:41;;;;;;;1.47;1.07;;;23.10;55.20;;;;;;4992434;28;20651;-68
2024/03/25 00:31:06;;;;;;;2.03;0.80;;;23.10;55.20;;;;;;4992106;28;20192;-68
2024/03/25 00:33:32;;;;;;;1.40;0.90;;;23.10;55.20;;;;;;4992323;28;20556;-68
2024/03/25 00:35:59;;;;;;;1.20;0.87;;;23.10;55.20;;;;;;4991900;28;20229;-69
2024/03/25 00:38:24;;;;;;;1.10;0.73;;;23.10;55.20;;;;;;4992170;28;20223;-68
2024/03/25 00:40:50;;;;;;;1.73;1.20;;;23.10;55.20;;;;;;4992428;28;20468;-68
2024/03/25 00:43:16;;;;;;;1.20;0.80;;;23.10;55.20;;;;;;4992066;28;20210;-69
2024/03/25 00:45:41;;;;;;;1.40;0.90;;;23.10;55.20;;;;;;4992101;28;20264;-68
2024/03/25 00:48:07;;;;;;;1.40;0.90;;;23.10;55.20;;;;;;4991968;28;20181;-68
2024/03/25 00:50:33;;;;;;;1.30;0.90;;;23.10;55.10;;;;;;4991908;28;20223;-69
2024/03/25 00:52:59;;;;;;;1.93;1.00;;;23.10;55.20;;;;;;4991830;28;20280;-69
2024/03/25 00:55:24;;;;;;;1.77;1.00;;;23.10;55.10;;;;;;4991751;28;20698;-68
2024/03/25 00:57:50;;;;;;;1.97;0.97;;;23.10;55.20;;;;;;4991836;28;20173;-68
2024/03/25 01:00:17;;;;;;;2.30;0.90;;;23.10;55.20;;;;;;4991947;28;20189;-68
2024/03/25 01:02:43;;;;;;;1.20;0.80;;;23.10;55.10;;;;;;4991653;28;20169;-68
2024/03/25 01:05:09;;;;;;;1.83;0.90;;;23.10;55.10;;;;;;4992099;28;20478;-69
2024/03/25 01:07:35;;;;;;;1.53;1.13;;;23.10;55.20;;;;;;4991798;28;20970;-68
2024/03/25 01:10:00;;;;;;;1.67;0.97;;;23.10;55.20;;;;;;4991863;28;20335;-68
2024/03/25 01:12:26;;;;;;;1.77;0.97;;;23.10;55.20;;;;;;4991531;28;20177;-69
2024/03/25 01:14:52;;;;;;;1.50;0.90;;;23.10;55.20;;;;;;4991775;28;20262;-68
2024/03/25 01:17:18;;;;;;;1.53;0.80;;;23.10;55.20;;;;;;4991879;28;20537;-68
2024/03/25 01:19:44;;;;;;;1.10;0.90;;;23.10;55.20;;;;;;4991645;28;20487;-69
2024/03/25 01:22:10;;;;;;;1.83;1.33;;;23.10;55.20;;;;;;4991696;28;20251;-69
2024/03/25 01:24:35;;;;;;;1.60;1.00;;;23.10;55.20;;;;;;4991760;28;20235;-68
2024/03/25 01:27:01;;;;;;;2.23;0.80;;;23.00;55.10;;;;;;4991565;28;20710;-68
2024/03/25 01:29:27;;;;;;;1.40;0.90;;;23.00;55.20;;;;;;4994639;28;20228;-68
2024/03/25 01:31:52;;;;;;;1.43;0.70;;;23.00;55.20;;;;;;4995794;28;20164;-68
2024/03/25 01:34:18;;;;;;;1.87;1.27;;;23.00;55.20;;;;;;4995672;28;20180;-69
2024/03/25 01:36:44;;;;;;;1.10;0.70;;;23.00;55.20;;;;;;4995643;28;20455;-68
2024/03/25 01:39:10;;;;;;;1.00;0.90;;;23.00;55.20;;;;;;4995474;28;20169;-68
2024/03/25 01:41:35;;;;;;;2.07;0.80;;;23.00;55.20;;;;;;4995347;28;20173;-69
2024/03/25 01:44:04;;;;;;;1.50;0.90;;;23.00;55.20;;;;;;4995570;28;20545;-68
2024/03/25 01:46:30;;;;;;;1.17;0.73;;;23.00;55.20;;;;;;4995582;28;20181;-67
2024/03/25 01:48:58;;;;;;;1.13;0.70;;;23.00;55.20;;;;;;4995637;28;20766;-68
2024/03/25 01:51:24;;;;;;;1.80;1.07;;;23.00;55.20;;;;;;4977903;28;20278;-67
2024/03/25 01:53:51;;;;;;;3.63;0.90;;;23.00;55.30;;;;;;4995609;28;20455;-69
2024/03/25 01:56:18;;;;;;;1.20;0.90;;;23.00;55.20;;;;;;4995249;28;21037;-68
2024/03/25 01:58:44;;;;;;;1.10;0.80;;;23.00;55.20;;;;;;4995234;28;20442;-68
2024/03/25 02:01:13;;;;;;;1.67;1.03;;;23.00;55.20;;;;;;4995502;28;20443;-69
2024/03/25 02:03:40;;;;;;;1.00;0.70;;;23.00;55.20;;;;;;4995168;28;20180;-68
2024/03/25 02:06:09;;;;;;;1.60;0.90;;;23.00;55.20;;;;;;4995065;28;20423;-68
2024/03/25 02:08:36;;;;;;;1.10;0.90;;;23.00;55.20;;;;;;4977444;28;20424;-68
2024/03/25 02:11:02;;;;;;;1.53;0.80;;;23.00;55.20;;;;;;4995104;28;20626;-68
2024/03/25 02:13:27;;;;;;;1.10;0.90;;;23.00;55.20;;;;;;4977507;28;20515;-69
2024/03/25 02:15:54;;;;;;;1.47;0.80;;;23.10;55.20;;;;;;4994901;28;20196;-68
2024/03/25 02:18:20;;;;;;;1.30;0.80;;;23.00;55.20;;;;;;4994922;28;20165;-68
2024/03/25 02:20:47;;;;;;;1.00;0.80;;;23.00;55.20;;;;;;4994800;28;20507;-68
2024/03/25 02:23:13;;;;;;;1.30;0.70;;;23.10;55.20;;;;;;4994671;28;20412;-68
2024/03/25 02:25:42;;;;;;;1.50;1.00;;;23.00;55.10;;;;;;4994759;28;20797;-69
2024/03/25 02:28:07;;;;;;;1.40;0.80;;;23.00;55.10;;;;;;4977286;28;20555;-69
2024/03/25 02:30:33;;;;;;;1.10;0.80;;;23.00;55.10;;;;;;4995025;28;20872;-69
2024/03/25 02:32:58;;;;;;;1.43;0.83;;;23.00;55.10;;;;;;4994652;28;20192;-69
2024/03/25 02:35:26;;;;;;;2.20;0.83;;;23.00;55.10;;;;;;4994587;28;20221;-69
2024/03/25 02:37:52;;;;;;;1.67;0.80;;;23.00;55.10;;;;;;4994562;28;20179;-69
2024/03/25 02:40:19;;;;;;;2.03;1.27;;;23.00;55.10;;;;;;4993624;28;20428;-69
2024/03/25 02:42:45;;;;;;;2.03;0.70;;;23.00;55.10;;;;;;4994546;28;20800;-68
2024/03/25 02:45:10;;;;;;;1.70;0.90;;;23.00;55.10;;;;;;4994510;28;20423;-68
2024/03/25 02:47:36;;;;;;;1.30;0.80;;;23.00;55.10;;;;;;4994393;28;20408;-68
2024/03/25 02:50:02;;;;;;;1.53;1.00;;;23.00;55.10;;;;;;4994222;28;20243;-68
2024/03/25 02:52:28;;;;;;;1.10;0.90;;;23.00;55.20;;;;;;4994103;28;20247;-68
2024/03/25 02:54:56;;;;;;;1.37;0.90;;;23.00;55.20;;;;;;4994077;28;20267;-68
2024/03/25 02:57:22;;;;;;;1.50;0.70;;;23.00;55.10;;;;;;4994057;28;20176;-69
2024/03/25 02:59:48;;;;;;;1.30;0.80;;;23.00;55.10;;;;;;4993886;28;20803;-68
2024/03/25 03:02:13;;;;;;;1.90;1.10;;;23.00;55.20;;;;;;4994083;28;20223;-69
2024/03/25 03:04:39;;;;;;;1.13;0.90;;;23.00;55.20;;;;;;4994223;28;20173;-69
2024/03/25 03:07:05;;;;;;;1.80;1.27;;;22.90;55.10;;;;;;4993865;28;20177;-68
2024/03/25 03:09:30;;;;;;;1.97;0.80;;;22.90;55.10;;;;;;4994197;28;20185;-68
2024/03/25 03:11:56;;;;;;;1.43;0.90;;;22.90;55.10;;;;;;4993795;28;20886;-68
2024/03/25 03:14:21;;;;;;;1.00;0.67;;;22.90;55.10;;;;;;4993732;28;20180;-68
2024/03/25 03:16:47;;;;;;;2.43;1.10;;;22.90;55.10;;;;;;4993671;28;20207;-68
2024/03/25 03:19:13;;;;;;;1.20;0.87;;;22.90;55.10;;;;;;4976252;28;20173;-69
2024/03/25 03:21:38;;;;;;;1.30;0.80;;;22.90;55.10;;;;;;4993840;28;20247;-68
2024/03/25 03:24:05;;;;;;;1.87;0.93;;;22.90;55.10;;;;;;4994002;28;20213;-69
2024/03/25 03:26:31;;;;;;;1.50;1.30;;;22.90;55.10;;;;;;4993679;28;20209;-69
2024/03/25 03:28:59;;;;;;;1.23;0.90;;;22.90;55.10;;;;;;4993638;28;20419;-68
2024/03/25 03:31:26;;;;;;;1.17;0.90;;;22.90;55.10;;;;;;4993510;28;20431;-68
2024/03/25 03:33:52;;;;;;;1.10;0.70;;;22.90;55.20;;;;;;4993494;28;20435;-68
2024/03/25 03:36:19;;;;;;;2.47;1.00;;;22.90;55.10;;;;;;4993240;28;20452;-69
2024/03/25 03:38:45;;;;;;;1.57;0.97;;;22.90;55.20;;;;;;4993235;28;20177;-69
2024/03/25 03:41:11;;;;;;;1.23;0.80;;;22.90;55.10;;;;;;4993324;28;20926;-69
2024/03/25 03:43:37;;;;;;;1.50;1.20;;;22.90;55.20;;;;;;4993160;28;20176;-68
2024/03/25 03:46:03;;;;;;;0.90;0.70;;;22.90;55.20;;;;;;4993273;28;20204;-68
2024/03/25 03:48:29;;;;;;;2.27;1.37;;;22.90;55.20;;;;;;4993238;28;20408;-68
2024/03/25 03:50:54;;;;;;;1.30;0.73;;;22.90;55.20;;;;;;4992783;28;20937;-69
2024/03/25 03:53:20;;;;;;;1.37;0.80;;;22.90;55.20;;;;;;4993041;28;20514;-68
2024/03/25 03:55:59;;;;;;;1.10;0.90;;;22.80;55.10;;;;;;4992889;28;20209;-68
2024/03/25 03:58:25;;;;;;;1.13;0.80;;;22.90;55.20;;;;;;4992943;28;20203;-68
2024/03/25 04:00:52;;;;;;;1.03;0.70;;;22.80;55.10;;;;;;4993135;28;20474;-68
2024/03/25 04:03:18;;;;;;;1.10;0.80;;;22.80;55.20;;;;;;4992759;28;20173;-68
2024/03/25 04:05:44;;;;;;;1.10;0.80;;;22.80;55.70;;;;;;4992724;28;21004;-67
2024/03/25 04:08:10;;;;;;;1.20;0.80;;;22.80;55.20;;;;;;4992465;28;20416;-67
2024/03/25 04:10:36;;;;;;;2.53;0.90;;;22.80;55.20;;;;;;4992776;28;20327;-68
2024/03/25 04:13:03;;;;;;;1.03;0.80;;;22.80;55.20;;;;;;4992668;28;20263;-68
2024/03/25 04:15:28;;;;;;;1.30;0.80;;;22.80;55.20;;;;;;4992557;28;20448;-68
2024/03/25 04:17:54;;;;;;;1.23;0.80;;;22.80;55.20;;;;;;4992632;28;20435;-68
2024/03/25 04:20:19;;;;;;;1.20;1.00;;;22.80;55.30;;;;;;4992430;28;20252;-68
2024/03/25 04:22:46;;;;;;;1.40;0.90;;;22.80;55.20;;;;;;4992477;28;20170;-68
2024/03/25 04:25:12;;;;;;;1.00;0.70;;;22.80;55.20;;;;;;4992827;28;20565;-68
2024/03/25 04:27:44;;;;;;;1.00;0.80;;;22.80;55.20;;;;;;4992491;28;20409;-68
2024/03/25 04:30:14;;;;;;;1.20;0.83;;;22.80;55.20;;;;;;4992265;28;20201;-69
2024/03/25 04:32:40;;;;;;;1.00;0.70;;;22.80;55.20;;;;;;4992188;28;20408;-68
2024/03/25 04:35:06;;;;;;;1.30;0.77;;;22.80;55.20;;;;;;4992278;28;20416;-68
2024/03/25 04:37:33;;;;;;;0.80;0.63;;;22.80;55.20;;;;;;4992276;28;20367;-68
2024/03/25 04:39:58;;;;;;;1.17;0.80;;;22.80;55.20;;;;;;4992485;28;20510;-68
2024/03/25 04:42:24;;;;;;;1.23;0.83;;;22.80;55.20;;;;;;4991888;28;20890;-68
2024/03/25 04:44:50;;;;;;;1.17;0.70;;;22.80;55.20;;;;;;4992160;28;20671;-68
2024/03/25 04:47:16;;;;;;;1.53;0.90;;;22.90;55.20;;;;;;4992149;28;20169;-68
2024/03/25 04:49:42;;;;;;;1.00;0.70;;;22.80;55.10;;;;;;4992238;28;21008;-69
2024/03/25 04:52:08;;;;;;;1.40;0.80;;;22.90;55.20;;;;;;4992004;28;20184;-68
2024/03/25 04:54:33;;;;;;;1.10;0.80;;;22.80;55.10;;;;;;4991944;28;20416;-69
2024/03/25 04:56:59;;;;;;;1.47;1.10;;;22.90;55.10;;;;;;4991941;28;20199;-68
2024/03/25 04:59:24;;;;;;;1.23;0.70;;;22.90;55.10;;;;;;4991862;28;20540;-68
2024/03/25 05:01:50;;;;;;;1.20;0.80;;;22.90;55.10;;;;;;4991842;28;20252;-68
2024/03/25 05:04:16;;;;;;;1.20;0.90;;;22.90;55.10;;;;;;4991336;28;20172;-68
2024/03/25 05:06:41;;;;;;;1.10;0.80;;;22.90;55.10;;;;;;4991898;28;20240;-68
2024/03/25 05:09:07;;;;;;;1.10;0.83;;;22.90;55.10;;;;;;4991823;28;20180;-68
2024/03/25 05:11:33;;;;;;;0.93;0.70;;;22.90;55.10;;;;;;4991693;28;20180;-68
2024/03/25 05:13:58;;;;;;;1.20;0.70;;;22.90;55.10;;;;;;4991764;28;20177;-69
2024/03/25 05:16:24;;;;;;;1.23;0.70;;;22.90;55.10;;;;;;4991767;28;20691;-68
2024/03/25 05:18:50;;;;;;;1.70;0.87;;;22.90;55.10;;;;;;4991791;28;20204;-68
2024/03/25 05:21:15;;;;;;;1.23;0.90;;;22.90;55.20;;;;;;4991841;28;20193;-68
2024/03/25 05:23:41;;;;;;;1.33;0.80;;;22.90;55.10;;;;;;4991657;28;20188;-68
2024/03/25 05:26:06;;;;;;;1.10;0.83;;;22.90;55.10;;;;;;4991522;28;20176;-68
2024/03/25 05:28:32;;;;;;;0.80;0.60;;;22.90;55.20;;;;;;4991701;28;20672;-68
2024/03/25 05:31:08;;;;;;;2.30;0.73;;;22.90;55.20;;;;;;4991686;28;20196;-69
2024/03/25 05:33:35;;;;;;;1.20;0.77;;;22.90;55.10;;;;;;4991634;28;20165;-69
2024/03/25 05:36:01;;;;;;;1.30;0.70;;;22.90;55.10;;;;;;4991664;28;20448;-68
2024/03/25 05:38:27;;;;;;;5.17;1.07;;;22.90;55.20;;;;;;4991420;28;20415;-67
2024/03/25 05:40:53;;;;;;;2.10;0.80;;;22.90;55.10;;;;;;4991314;28;20972;-68
2024/03/25 05:43:20;;;;;;;3.43;0.87;;;22.90;55.10;;;;;;4991633;28;20409;-68
2024/03/25 05:45:53;;;;;;;1.13;0.90;;;22.90;55.10;;;;;;4991558;28;20169;-69
2024/03/25 05:48:19;;;;;;;1.10;0.73;;;22.90;55.00;;;;;;4991795;28;20423;-68
2024/03/25 05:50:45;;;;;;;1.27;0.70;;;22.90;55.00;;;;;;4991333;28;20580;-68
2024/03/25 05:53:10;;;;;;;1.10;0.80;;;22.90;54.90;;;;;;4991490;28;20913;-68
2024/03/25 05:55:36;;;;;;;1.30;0.80;;;22.90;54.90;;;;;;4991396;28;20207;-68
2024/03/25 05:58:03;;;;;;;1.17;0.90;;;22.90;54.90;;;;;;4991703;28;20683;-68
2024/03/25 06:00:30;;;;;;;1.27;0.90;;;22.90;54.90;;;;;;4991538;28;20568;-67
2024/03/25 06:02:56;;;;;;;1.20;0.70;;;22.90;54.90;;;;;;4974113;28;20420;-69
2024/03/25 06:05:22;;;;;;;0.97;0.80;;;22.90;55.00;;;;;;4991104;28;20875;-68
2024/03/25 06:07:47;;;;;;;1.07;0.70;;;22.90;55.00;;;;;;4991264;28;20419;-69
2024/03/25 06:10:13;;;;;;;1.03;0.70;;;22.90;55.00;;;;;;4991530;28;20243;-67
2024/03/25 06:12:38;;;;;;;1.00;0.73;;;22.90;55.00;;;;;;4991350;28;20656;-67
2024/03/25 06:15:05;;;;;;;1.33;0.80;;;22.90;55.10;;;;;;4991942;28;20617;-68
2024/03/25 06:17:30;;;;;;;1.27;0.70;;;22.90;55.00;;;;;;4995182;28;20656;-68
2024/03/25 06:19:56;;;;;;;1.00;0.80;;;22.80;55.00;;;;;;4995192;28;20436;-69
2024/03/25 06:22:21;;;;;;;1.17;0.80;;;22.90;55.10;;;;;;4994938;28;20192;-68
2024/03/25 06:24:49;;;;;;;1.10;0.90;;;22.90;55.10;;;;;;4977455;28;20224;-69
2024/03/25 06:27:14;;;;;;;1.93;0.70;;;22.90;55.10;;;;;;4994680;28;20202;-68
2024/03/25 06:29:40;;;;;;;2.10;0.77;;;22.90;55.10;;;;;;4994792;28;20868;-68
2024/03/25 06:34:50;;;;;;;1.13;0.80;;;22.90;55.10;;;;;;4994434;28;20187;-68
2024/03/25 06:37:15;;;;;;;0.90;0.70;;;22.90;55.10;;;;;;4994244;28;20451;-68
2024/03/25 06:39:41;;;;;;;1.00;0.80;;;22.90;55.10;;;;;;4994292;28;20197;-68
2024/03/25 06:42:07;;;;;;;1.20;0.80;;;22.90;55.10;;;;;;4994488;28;20596;-69
2024/03/25 06:44:33;;;;;;;1.90;1.30;;;22.90;55.10;;;;;;4994000;28;20420;-66
2024/03/25 06:46:58;;;;;;;1.47;0.80;;;22.90;55.10;;;;;;4994024;28;20173;-68
2024/03/25 06:49:24;;;;;;;4.70;1.00;;;22.90;55.10;;;;;;4976243;28;20247;-68
2024/03/25 06:51:49;;;;;;;1.40;0.70;;;22.90;55.10;;;;;;4994579;28;20193;-70
2024/03/25 06:54:15;;;;;;;2.07;1.00;;;22.90;55.10;;;;;;4994558;28;20265;-68
2024/03/25 06:56:41;;;;;;;1.53;0.90;;;22.90;55.10;;;;;;4994330;28;20193;-69
2024/03/25 06:59:07;;;;;;;1.10;0.70;;;22.90;55.10;;;;;;4977182;28;20227;-68
2024/03/25 07:01:33;;;;;;;1.67;0.90;;;22.90;55.10;;;;;;4994298;28;20789;-68
2024/03/25 07:03:58;;;;;;;1.43;1.20;;;22.90;55.10;;;;;;4993808;28;20165;-68
2024/03/25 07:06:25;;;;;;;1.50;0.80;;;23.00;55.30;;;;;;4994108;28;20423;-68
2024/03/25 07:08:51;;;;;;;2.50;1.10;;;22.90;55.20;;;;;;4994177;28;20181;-68
2024/03/25 07:11:17;;;;;;;1.00;0.60;;;22.90;55.20;;;;;;4993714;28;20439;-69
2024/03/25 07:13:43;;;;;;;2.90;0.80;;;23.00;55.30;;;;;;4994041;28;20420;-67
2024/03/25 07:16:08;;;;;;;1.30;0.90;;;23.00;55.20;;;;;;4993590;28;20874;-68
2024/03/25 07:18:34;;;;;;;2.13;1.03;;;23.00;55.20;;;;;;4994233;28;20227;-68
2024/03/25 07:21:00;;;;;;;1.20;0.70;;;23.00;55.20;;;;;;4993652;28;20289;-69
2024/03/25 07:23:25;;;;;;;1.60;0.80;;;23.00;55.20;;;;;;4993803;28;20166;-67
2024/03/25 07:25:51;;;;;;;1.80;0.90;;;23.00;55.20;;;;;;4993130;28;20209;-68
2024/03/25 07:28:16;;;;;;;0.90;0.60;;;23.00;55.20;;;;;;4993744;28;20658;-68
2024/03/25 07:30:42;;;;;;;1.07;0.80;;;23.00;55.20;;;;;;4993426;28;20550;-69
2024/03/25 07:33:07;;;;;;;1.20;0.70;;;23.00;55.70;;;;;;4993222;28;20183;-69
2024/03/25 07:35:33;;;;;;;1.00;0.80;;;23.00;55.20;;;;;;4975772;28;20189;-69
2024/03/25 07:37:59;;;;;;;1.20;0.80;;;23.10;55.30;;;;;;4995189;28;20174;-66
2024/03/25 07:40:25;;;;;;;2.93;0.87;;;23.10;55.30;;;;;;4993762;28;20200;-68
2024/03/25 07:42:50;;;;;;;2.17;0.93;;;23.10;55.30;;;;;;4994280;28;20677;-68
2024/03/25 07:45:16;;;;;;;1.30;0.90;;;23.10;55.30;;;;;;4994151;28;20171;-68
2024/03/25 07:47:42;;;;;;;1.30;0.80;;;23.10;55.30;;;;;;4993749;28;20627;-67
2024/03/25 07:50:08;;;;;;;1.27;0.80;;;23.10;55.40;;;;;;4993847;28;20204;-70
2024/03/25 07:52:40;;;;;;;1.00;0.80;;;23.10;55.30;;;;;;4993920;28;20232;-67
2024/03/25 07:55:07;;;;;;;2.47;0.77;;;23.20;55.40;;;;;;4993064;28;20837;-67
2024/03/25 07:57:33;;;;;;;1.30;0.80;;;23.20;55.40;;;;;;4992878;28;20793;-68
2024/03/25 07:59:58;;;;;;;2.03;0.90;;;23.20;55.40;;;;;;4992933;28;20460;-68
2024/03/25 08:02:24;;;;;;;1.30;0.80;;;23.20;56.00;;;;;;4992950;28;20989;-67
2024/03/25 08:04:49;;;;;;;2.00;0.80;;;23.20;55.40;;;;;;4993168;28;20244;-68
2024/03/25 08:07:15;;;;;;;1.30;1.07;;;23.20;55.40;;;;;;4993105;28;20216;-68
2024/03/25 08:09:41;;;;;;;1.00;0.77;;;23.20;55.40;;;;;;4993240;28;20196;-67
2024/03/25 08:12:07;;;;;;;1.00;0.70;;;23.20;55.40;;;;;;4993434;28;20183;-68
2024/03/25 08:14:32;;;;;;;1.50;0.80;;;23.20;55.40;;;;;;4993805;28;20426;-68
2024/03/25 08:16:58;;;;;;;1.67;0.90;;;23.30;55.50;;;;;;4993435;28;20196;-68
2024/03/25 08:19:24;;;;;;;1.10;0.80;;;23.30;55.50;;;;;;4993454;28;20169;-68
2024/03/25 08:21:49;;;;;;;1.33;0.70;;;23.30;55.60;;;;;;4993494;28;20235;-68
2024/03/25 08:24:15;;;;;;;1.70;1.60;;;23.30;55.50;;;;;;4993543;28;20715;-68
2024/03/25 08:26:41;;;;;;;1.13;0.70;;;23.30;55.60;;;;;;4993438;28;20177;-68
2024/03/25 08:29:06;;;;;;;1.10;0.80;;;23.30;55.60;;;;;;4993308;28;20606;-67
2024/03/25 08:31:32;;;;;;;1.40;0.90;;;23.40;55.60;;;;;;4993876;28;20239;-68
2024/03/25 08:33:57;;;;;;;3.60;1.17;;;23.40;55.60;;;;;;4975854;28;20188;-68
2024/03/25 08:36:23;;;;;;;1.23;0.80;;;23.40;55.70;;;;;;4993273;28;20227;-68
2024/03/25 08:38:49;;;;;;;1.10;0.80;;;23.40;55.70;;;;;;4992823;28;20176;-70
2024/03/25 08:41:15;;;;;;;1.53;1.00;;;23.40;55.60;;;;;;4992756;28;20264;-70
2024/03/25 08:43:40;;;;;;;1.60;0.83;;;23.40;55.60;;;;;;4975505;28;20654;-71
2024/03/25 08:46:06;;;;;;;2.00;0.90;;;23.50;55.70;;;;;;4991748;28;20539;-69
2024/03/25 08:48:31;;;;;;;1.67;0.70;;;23.50;56.10;;;;;;4991806;28;20208;-67
2024/03/25 08:50:57;;;;;;;1.20;0.80;;;23.40;55.60;;;;;;4992115;28;20216;-68
2024/03/25 08:53:22;;;;;;;1.57;0.83;;;23.50;55.60;;;;;;4992058;28;20177;-67
2024/03/25 08:55:48;;;;;;;1.30;0.80;;;23.50;55.60;;;;;;4992459;28;20577;-67
2024/03/25 08:58:15;;;;;;;1.00;0.73;;;23.50;55.60;;;;;;4992067;28;20547;-71
2024/03/25 09:00:41;;;;;;;0.90;0.70;;;23.50;55.60;;;;;;4992907;28;20673;-68
2024/03/25 09:03:08;;;;;;;1.00;0.80;;;23.50;55.80;;;;;;4992460;28;20941;-68
2024/03/25 09:05:34;;;;;;;1.57;0.70;;;23.50;55.60;;;;;;4992480;28;20447;-67
2024/03/25 09:08:00;;;;;;;2.07;0.87;;;23.50;55.60;;;;;;4992117;28;20499;-67
2024/03/25 09:13:09;;;;;;;1.23;0.73;;;23.50;55.60;;;;;;4991648;28;20176;-68
2024/03/25 09:15:35;;;;;;;1.63;0.80;;;23.50;55.60;;;;;;4991765;28;20471;-68
2024/03/25 09:18:01;;;;;;;1.23;0.83;;;23.50;55.60;;;;;;4991896;28;20177;-66
2024/03/25 09:20:26;;;;;;;1.43;0.70;;;23.50;55.60;;;;;;4992289;28;20259;-67
2024/03/25 09:22:52;;;;;;;1.10;0.73;;;23.60;55.70;;;;;;4991527;28;20731;-67
2024/03/25 09:25:18;;;;;;;1.47;0.73;;;23.50;55.60;;;;;;4991553;28;20173;-66
2024/03/25 09:27:48;;;;;;;1.40;0.93;;;23.60;56.20;;;;;;4991417;28;20726;-67
2024/03/25 09:30:14;;;;;;;1.40;0.87;;;23.60;55.60;;;;;;4990868;28;20829;-67
2024/03/25 09:32:42;;;;;;;1.20;0.83;;;23.60;55.60;;;;;;4990759;28;20423;-67
2024/03/25 09:35:09;;;;;;;1.57;0.90;;;23.60;55.50;;;;;;4990967;28;20488;-67
2024/03/25 09:37:35;;;;;;;1.33;1.00;;;23.60;55.50;;;;;;4990846;28;20400;-68
2024/03/25 09:40:01;;;;;;;7.40;1.00;;;23.60;55.50;;;;;;4990980;28;20424;-67
2024/03/25 09:42:28;;;;;;;1.20;0.77;;;23.60;55.50;;;;;;4990868;28;20236;-67
2024/03/25 09:44:56;;;;;;;1.97;1.10;;;23.60;55.40;;;;;;4991240;28;20408;-68
2024/03/25 09:47:22;;;;;;;2.00;1.00;;;23.60;55.40;;;;;;4991297;28;20416;-68
2024/03/25 09:49:48;;;;;;;1.17;0.87;;;23.60;55.40;;;;;;4992631;28;20559;-68
2024/03/25 09:52:15;;;;;;;1.40;1.10;;;23.60;55.40;;;;;;4995106;28;20503;-66
2024/03/25 09:54:41;;;;;;;1.30;0.80;;;23.60;55.40;;;;;;4995111;28;20604;-66
2024/03/25 09:57:08;;;;;;;2.33;0.93;;;23.60;55.40;;;;;;4994920;28;20540;-68
2024/03/25 09:59:34;;;;;;;2.13;0.97;;;23.60;55.40;;;;;;4995267;28;20511;-68
2024/03/25 10:02:01;;;;;;;2.03;1.20;;;23.60;55.40;;;;;;4994707;28;20408;-67
2024/03/25 10:04:27;;;;;;;1.70;1.00;;;23.60;55.40;;;;;;4994929;28;20469;-67
2024/03/25 10:06:53;;;;;;;2.97;1.00;;;23.60;55.40;;;;;;4994565;28;20966;-67
2024/03/25 10:09:22;;;;;;;2.10;0.90;;;23.60;55.40;;;;;;4994456;28;20555;-68
2024/03/25 10:11:50;;;;;;;1.13;0.73;;;23.60;55.30;;;;;;4994529;28;21264;-66
2024/03/25 10:14:17;;;;;;;1.10;0.70;;;23.60;55.40;;;;;;4994492;28;20815;-68
2024/03/25 10:16:43;;;;;;;1.50;1.00;;;23.60;55.40;;;;;;4994478;28;20830;-67
2024/03/25 10:19:09;;;;;;;1.57;0.70;;;23.60;55.30;;;;;;4994269;28;20420;-65
2024/03/25 10:21:35;;;;;;;1.97;1.53;;;23.60;55.30;;;;;;4994454;28;20419;-68
2024/03/25 10:24:04;;;;;;;1.80;1.13;;;23.60;55.30;;;;;;4994512;28;20403;-67
2024/03/25 10:26:31;;;;;;;1.57;0.80;;;23.60;55.30;;;;;;4994262;28;20412;-68
2024/03/25 10:29:06;;;;;;;1.40;0.80;;;23.60;55.90;;;;;;4994146;28;20470;-68
2024/03/25 10:31:32;;;;;;;1.53;1.00;;;23.60;55.30;;;;;;4994056;28;20432;-68
2024/03/25 10:33:58;;;;;;;1.30;0.80;;;23.60;55.30;;;;;;4994218;28;20495;-68
2024/03/25 10:36:25;;;;;;;0.97;0.70;;;23.60;55.30;;;;;;4993964;28;20574;-65
2024/03/25 10:38:55;;;;;;;1.47;0.97;;;23.60;55.30;;;;;;4994206;28;20236;-67
2024/03/25 10:41:22;;;;;;;1.33;0.90;;;23.60;55.30;;;;;;4993898;28;20450;-68
2024/03/25 10:43:48;;;;;;;1.10;0.80;;;23.60;55.30;;;;;;4993889;28;20865;-69
2024/03/25 10:46:21;;;;;;;1.77;0.80;;;23.60;55.30;;;;;;4994192;28;20495;-66
2024/03/25 10:48:59;;;;;;;2.10;1.00;;;23.60;55.30;;;;;;4994003;28;20265;-67
2024/03/25 10:51:26;;;;;;;1.77;0.80;;;23.60;55.30;;;;;;4993956;28;20450;-68
2024/03/25 10:53:52;;;;;;;1.40;0.80;;;23.60;55.30;;;;;;4993838;28;20918;-68
2024/03/25 10:56:21;;;;;;;3.93;1.20;;;23.60;55.30;;;;;;4993576;28;20466;-67
2024/03/25 10:58:48;;;;;;;2.40;0.80;;;23.60;55.30;;;;;;4994665;28;20451;-66
2024/03/25 11:01:18;;;;;;;1.13;0.80;;;23.60;55.30;;;;;;4994929;28;20432;-67
2024/03/25 11:03:48;;;;;;;1.83;1.53;;;23.60;55.30;;;;;;4995701;28;20412;-70
2024/03/25 11:06:16;;;;;;;1.50;0.80;;;23.60;55.30;;;;;;4995318;28;20584;-68
2024/03/25 11:08:46;;;;;;;1.60;0.93;;;23.60;55.30;;;;;;4994028;28;20451;-67
2024/03/25 11:11:12;;;;;;;2.07;0.87;;;23.60;55.30;;;;;;4994344;28;20438;-68
2024/03/25 11:13:39;;;;;;;1.10;0.90;;;23.60;55.30;;;;;;4993960;28;20867;-66
2024/03/25 11:16:07;;;;;;;1.53;0.70;;;23.60;55.30;;;;;;4994384;28;20456;-68
2024/03/25 11:18:33;;;;;;;1.27;0.90;;;23.60;55.30;;;;;;4993465;28;20424;-68
2024/03/25 11:21:07;;;;;;;2.70;0.90;;;23.60;55.30;;;;;;4993548;28;20433;-69
2024/03/25 11:23:41;;;;;;;2.23;0.90;;;23.60;55.30;;;;;;4976699;28;20428;-70
2024/03/25 11:26:21;;;;;;;1.10;0.80;;;23.60;55.30;;;;;;4994395;28;20904;-71
2024/03/25 11:28:46;;;;;;;2.57;1.00;;;23.60;55.30;;;;;;4995536;28;20400;-72
2024/03/25 11:31:12;;;;;;;2.30;1.30;;;23.60;55.30;;;;;;4996101;28;20444;-70
2024/03/25 11:33:39;;;;;;;0.90;0.60;;;23.60;55.30;;;;;;4977914;28;20227;-71
2024/03/25 11:36:05;;;;;;;1.13;0.80;;;23.60;55.30;;;;;;4994924;28;20684;-68
2024/03/25 11:38:31;;;;;;;2.17;1.00;;;23.60;55.30;;;;;;4994413;28;20424;-67
2024/03/25 11:40:57;;;;;;;2.03;0.90;;;23.60;55.40;;;;;;4994098;28;20466;-68
2024/03/25 11:43:23;;;;;;;4.10;0.90;;;23.60;55.30;;;;;;4994114;28;20189;-70
2024/03/25 11:45:49;;;;;;;1.40;1.17;;;23.60;55.30;;;;;;4993500;28;21152;-69
2024/03/25 11:48:18;;;;;;;3.40;1.37;;;23.60;55.30;;;;;;4993181;28;20452;-67
2024/03/25 11:50:47;;;;;;;4.83;2.07;;;23.60;55.30;;;;;;4992742;28;20219;-70
2024/03/25 11:53:16;;;;;;;9.47;2.93;;;23.60;55.30;;;;;;4992873;28;20416;-69
2024/03/25 11:55:46;;;;;;;12.60;3.70;;;23.60;55.30;;;;;;4992869;28;20564;-68
2024/03/25 11:58:12;;;;;;;16.00;4.27;;;23.60;55.30;;;;;;4993273;28;20419;-69
2024/03/25 12:00:45;;;;;;;23.07;5.70;;;23.60;55.30;;;;;;4994391;28;20432;-69
2024/03/25 12:03:14;;;;;;;14.37;6.00;;;23.60;55.30;;;;;;4996365;28;20211;-73
2024/03/25 12:05:41;;;;;;;17.83;6.13;;;23.60;55.30;;;;;;4992280;28;20452;-69
2024/03/25 12:08:10;;;;;;;20.63;7.20;;;23.50;55.30;;;;;;4975244;28;20432;-68
2024/03/25 12:13:35;;;;;;;19.07;7.27;;;23.50;55.30;;;;;;4948307;28;20432;-68
2024/03/25 12:16:02;;;;;;;20.73;7.30;;;23.50;55.30;;;;;;4992678;28;20463;-68
2024/03/25 12:18:29;;;;;;;26.63;8.67;;;23.50;55.30;;;;;;4992602;28;20173;-69
2024/03/25 12:20:57;;;;;;;24.10;9.60;;;23.50;55.30;;;;;;4992647;28;20438;-69
2024/03/25 12:23:22;;;;;;;26.53;10.00;;;23.50;55.30;;;;;;4992377;28;20939;-69
2024/03/25 12:25:49;;;;;;;31.80;10.07;;;23.50;55.30;;;;;;4992394;28;20451;-70
2024/03/25 12:28:15;;;;;;;30.30;9.77;;;23.50;55.30;;;;;;4992614;28;20232;-68
2024/03/25 12:30:49;;;;;;;32.60;10.43;;;23.50;55.30;;;;;;4992371;28;20436;-70
2024/03/25 12:33:16;;;;;;;29.20;11.00;;;23.50;55.30;;;;;;4992351;28;20173;-68
2024/03/25 12:35:41;;;;;;;21.93;9.40;;;23.50;55.30;;;;;;4992213;28;20881;-69
2024/03/25 12:38:07;;;;;;;23.03;8.70;;;23.50;55.30;;;;;;4992294;28;20495;-70
2024/03/25 12:40:32;;;;;;;24.57;9.87;;;23.50;55.30;;;;;;4992172;28;20201;-69
2024/03/25 12:42:58;;;;;;;27.90;11.27;;;23.50;55.40;;;;;;4992248;28;20252;-69
2024/03/25 12:45:24;;;;;;;23.40;9.23;;;23.50;55.30;;;;;;4991977;28;20859;-69
2024/03/25 12:47:53;;;;;;;32.50;10.60;;;23.50;55.40;;;;;;4992063;28;20174;-70
2024/03/25 12:50:18;;;;;;;27.20;11.00;;;23.50;55.30;;;;;;4992184;28;20240;-69